Weather at Bergen Airport Flesland

Public forecast

Using degrees Celsius for public forecast. Weather courtesy of forecast.io.

Current aviation weather report (METAR) for Bergen Airport Flesland

Retrieved 2021/05/12 01:20 UTC (10 minutes ago):

ENBR 120120Z 05003KT CAVOK 08/06 Q1012 RMK WIND 1200FT 05004KT

Aviation forecast (TAF) for Bergen Airport Flesland

Retrieved 2021-05-12 00:57 UTC (33 minutes ago):

TAF ENBR 112300Z 1200/1224 VRB05KT 9999 FEW030 BECMG 1206/1208 35012KT BECMG 1217/1220 VRB05KT